createdAt,value
2018-11-03T00:00:06.800Z,8.59
2018-11-03T00:01:06.782Z,8.63
2018-11-03T00:02:06.765Z,8.58
2018-11-03T00:03:06.756Z,8.59
2018-11-03T00:04:06.744Z,8.58
2018-11-03T00:05:06.729Z,8.62
2018-11-03T00:06:06.708Z,8.66
2018-11-03T00:07:06.701Z,8.63
2018-11-03T00:08:06.686Z,8.63
2018-11-03T00:09:06.671Z,8.61
2018-11-03T00:10:06.664Z,8.62
2018-11-03T00:11:06.641Z,8.61
2018-11-03T00:12:06.631Z,8.59
2018-11-03T00:13:06.615Z,8.66
2018-11-03T00:14:06.600Z,8.63
2018-11-03T00:15:06.588Z,8.63
2018-11-03T00:16:06.572Z,8.59
2018-11-03T00:17:06.562Z,8.53
2018-11-03T00:18:06.544Z,8.58
2018-11-03T00:19:06.533Z,8.58
2018-11-03T00:20:06.523Z,8.48
2018-11-03T00:21:06.501Z,8.37
2018-11-03T00:22:06.493Z,8.52
2018-11-03T00:23:06.474Z,8.45
2018-11-03T00:24:06.463Z,8.37
2018-11-03T00:25:06.448Z,8.38
2018-11-03T00:26:06.444Z,8.34
2018-11-03T00:27:06.419Z,8.33
2018-11-03T00:28:06.411Z,8.40
2018-11-03T00:29:06.394Z,8.41
2018-11-03T00:30:06.376Z,8.26
2018-11-03T00:31:06.368Z,8.28
2018-11-03T00:32:06.353Z,8.20
2018-11-03T00:33:06.340Z,8.28
2018-11-03T00:34:06.321Z,8.29
2018-11-03T00:35:06.304Z,8.28
2018-11-03T00:36:06.300Z,8.20
2018-11-03T00:37:06.284Z,8.15
2018-11-03T00:38:06.266Z,8.18
2018-11-03T00:39:06.252Z,8.19
2018-11-03T00:40:06.241Z,8.20
2018-11-03T00:41:06.229Z,8.26
2018-11-03T00:42:06.212Z,8.23
2018-11-03T00:43:06.196Z,8.26
2018-11-03T00:44:06.186Z,8.28
2018-11-03T00:45:06.170Z,8.26
2018-11-03T00:46:06.155Z,8.23
2018-11-03T00:47:06.148Z,8.37
2018-11-03T00:48:06.128Z,8.20
2018-11-03T00:49:06.117Z,8.28
2018-11-03T00:50:06.099Z,8.29
2018-11-03T00:51:06.083Z,8.37
2018-11-03T00:52:06.084Z,8.26
2018-11-03T00:53:06.058Z,8.30
2018-11-03T00:54:06.045Z,8.26
2018-11-03T00:55:06.031Z,8.20
2018-11-03T00:56:06.013Z,8.19
2018-11-03T00:57:06.003Z,8.23
2018-11-03T00:58:06.000Z,8.33
2018-11-03T00:59:05.976Z,8.23
2018-11-03T01:00:05.959Z,8.34
2018-11-03T01:01:05.948Z,8.26
2018-11-03T01:02:05.939Z,8.26
2018-11-03T01:03:05.920Z,8.25
2018-11-03T01:04:05.906Z,8.23
2018-11-03T01:05:05.888Z,8.18
2018-11-03T01:06:05.876Z,8.22
2018-11-03T01:07:05.858Z,8.33
2018-11-03T01:08:05.844Z,8.36
2018-11-03T01:09:05.834Z,8.26
2018-11-03T01:10:05.817Z,8.22
2018-11-03T01:11:05.808Z,8.37
2018-11-03T01:12:05.791Z,8.28
2018-11-03T01:13:05.775Z,8.26
2018-11-03T01:14:05.759Z,8.36
2018-11-03T01:15:05.748Z,8.34
2018-11-03T01:16:05.737Z,8.38
2018-11-03T01:17:05.723Z,8.37
2018-11-03T01:18:05.703Z,8.41
2018-11-03T01:19:05.696Z,8.40
2018-11-03T01:20:05.682Z,8.38
2018-11-03T01:21:05.660Z,8.38
2018-11-03T01:22:05.649Z,8.36
2018-11-03T01:23:05.637Z,8.28
2018-11-03T01:24:05.621Z,8.28
2018-11-03T01:25:05.610Z,8.26
2018-11-03T01:26:05.594Z,8.19
2018-11-03T01:27:05.580Z,8.29
2018-11-03T01:28:05.566Z,8.34
2018-11-03T01:29:05.552Z,8.33
2018-11-03T01:30:05.535Z,8.30
2018-11-03T01:31:05.522Z,8.23
2018-11-03T01:32:05.512Z,8.33
2018-11-03T01:33:05.491Z,8.25
2018-11-03T01:34:05.482Z,8.28
2018-11-03T01:35:05.466Z,8.29
2018-11-03T01:36:05.452Z,8.28
2018-11-03T01:37:05.438Z,8.29
2018-11-03T01:38:05.424Z,8.28
2018-11-03T01:39:05.407Z,8.33
2018-11-03T01:40:05.400Z,8.29
2018-11-03T01:41:05.386Z,8.33
2018-11-03T01:42:05.369Z,8.34
2018-11-03T01:43:05.359Z,8.34
2018-11-03T01:44:05.342Z,8.34
2018-11-03T01:45:05.331Z,8.36
2018-11-03T01:46:05.309Z,8.37
2018-11-03T01:47:05.298Z,8.36
2018-11-03T01:48:05.293Z,8.36
2018-11-03T01:49:05.269Z,8.34
2018-11-03T01:50:05.261Z,8.38
2018-11-03T01:51:05.242Z,8.43
2018-11-03T01:52:05.232Z,8.40
2018-11-03T01:53:05.214Z,8.40
2018-11-03T01:54:05.202Z,8.37
2018-11-03T01:55:05.198Z,8.48
2018-11-03T01:56:05.174Z,8.45
2018-11-03T01:57:05.160Z,8.48
2018-11-03T01:58:05.143Z,8.47
2018-11-03T01:59:05.133Z,8.44
2018-11-03T02:00:05.114Z,8.50
2018-11-03T02:01:05.102Z,8.43
2018-11-03T02:02:05.094Z,8.47
2018-11-03T02:03:05.083Z,8.47
2018-11-03T02:04:05.065Z,8.41
2018-11-03T02:05:05.051Z,8.38
2018-11-03T02:06:05.036Z,8.41
2018-11-03T02:07:05.021Z,8.38
2018-11-03T02:08:05.003Z,8.43
2018-11-03T02:09:04.993Z,8.47
2018-11-03T02:10:04.983Z,8.40
2018-11-03T02:11:04.967Z,8.47
2018-11-03T02:12:04.953Z,8.53
2018-11-03T02:13:04.939Z,8.41
2018-11-03T02:14:04.924Z,8.43
2018-11-03T02:15:04.902Z,8.47
2018-11-03T02:16:04.894Z,8.48
2018-11-03T02:17:04.879Z,8.47
2018-11-03T02:18:04.868Z,8.37
2018-11-03T02:19:04.850Z,8.34
2018-11-03T02:20:04.840Z,8.40
2018-11-03T02:21:04.819Z,8.40
2018-11-03T02:22:04.812Z,8.41
2018-11-03T02:23:04.801Z,8.30
2018-11-03T02:24:04.779Z,8.29
2018-11-03T02:25:04.775Z,8.26
2018-11-03T02:26:04.755Z,8.43
2018-11-03T02:27:04.753Z,8.33
2018-11-03T02:28:04.724Z,8.25
2018-11-03T02:29:04.713Z,8.30
2018-11-03T02:30:04.702Z,8.28
2018-11-03T02:31:04.684Z,8.29
2018-11-03T02:32:04.670Z,8.30
2018-11-03T02:33:04.656Z,8.20
2018-11-03T02:34:04.723Z,8.19
2018-11-03T02:35:04.628Z,8.22
2018-11-03T02:36:04.618Z,8.20
2018-11-03T02:37:04.604Z,8.10
2018-11-03T02:38:04.585Z,8.12
2018-11-03T02:39:04.571Z,8.00
2018-11-03T02:40:04.555Z,8.01
2018-11-03T02:41:04.547Z,7.97
2018-11-03T02:42:04.567Z,7.98
2018-11-03T02:43:04.515Z,8.01
2018-11-03T02:44:04.501Z,8.04
2018-11-03T02:45:04.489Z,8.02
2018-11-03T02:46:04.472Z,8.11
2018-11-03T02:47:04.461Z,8.15
2018-11-03T02:48:04.446Z,8.16
2018-11-03T02:49:04.440Z,8.15
2018-11-03T02:50:04.433Z,8.18
2018-11-03T02:51:04.409Z,8.22
2018-11-03T02:52:04.391Z,8.23
2018-11-03T02:53:04.380Z,8.20
2018-11-03T02:54:04.357Z,8.18
2018-11-03T02:55:04.354Z,8.20
2018-11-03T02:56:04.337Z,8.19
2018-11-03T02:57:04.317Z,8.20
2018-11-03T02:58:04.306Z,8.15
2018-11-03T02:59:04.293Z,8.22
2018-11-03T03:00:04.275Z,8.22
2018-11-03T03:01:04.260Z,8.36
2018-11-03T03:02:04.248Z,8.33
2018-11-03T03:03:04.236Z,8.34
2018-11-03T03:04:04.219Z,8.37
2018-11-03T03:05:04.214Z,8.34
2018-11-03T03:06:04.188Z,8.30
2018-11-03T03:07:04.177Z,8.23
2018-11-03T03:08:04.165Z,8.30
2018-11-03T03:09:04.149Z,8.26
2018-11-03T03:10:04.132Z,8.28
2018-11-03T03:11:04.119Z,8.28
2018-11-03T03:12:04.102Z,8.36
2018-11-03T03:13:04.090Z,8.33
2018-11-03T03:14:04.079Z,8.34
2018-11-03T03:15:04.062Z,8.34
2018-11-03T03:16:04.048Z,8.36
2018-11-03T03:17:04.038Z,8.37
2018-11-03T03:18:04.027Z,8.38
2018-11-03T03:19:04.003Z,8.37
2018-11-03T03:20:03.993Z,8.28
2018-11-03T03:21:03.977Z,8.40
2018-11-03T03:22:03.965Z,8.34
2018-11-03T03:23:03.953Z,8.40
2018-11-03T03:24:03.939Z,8.36
2018-11-03T03:25:03.928Z,8.36
2018-11-03T03:26:03.914Z,8.34
2018-11-03T03:27:03.900Z,8.41
2018-11-03T03:28:03.882Z,8.28
2018-11-03T03:29:03.976Z,8.34
2018-11-03T03:30:03.854Z,8.29
2018-11-03T03:31:03.841Z,8.30
2018-11-03T03:32:03.868Z,8.37
2018-11-03T03:33:03.816Z,8.25
2018-11-03T03:34:03.798Z,8.33
2018-11-03T03:35:03.785Z,8.33
2018-11-03T03:36:03.771Z,8.28
2018-11-03T03:37:03.761Z,8.33
2018-11-03T03:38:03.745Z,8.29
2018-11-03T03:39:03.726Z,8.30
2018-11-03T03:40:03.713Z,8.26
2018-11-03T03:41:03.698Z,8.20
2018-11-03T03:42:03.688Z,8.33
2018-11-03T03:43:03.671Z,8.37
2018-11-03T03:44:03.657Z,8.28
2018-11-03T03:45:03.645Z,8.28
2018-11-03T03:46:03.628Z,8.30
2018-11-03T03:47:03.611Z,8.34
2018-11-03T03:48:03.599Z,8.34
2018-11-03T03:49:03.585Z,8.34
2018-11-03T03:50:03.569Z,8.28
2018-11-03T03:51:03.560Z,8.36
2018-11-03T03:52:03.546Z,8.36
2018-11-03T03:53:03.531Z,8.36
2018-11-03T03:54:03.525Z,8.30
2018-11-03T03:55:03.515Z,8.25
2018-11-03T03:56:03.488Z,8.29
2018-11-03T03:57:03.476Z,8.29
2018-11-03T03:58:03.464Z,8.28
2018-11-03T03:59:03.445Z,8.26
2018-11-03T04:00:03.431Z,8.28
2018-11-03T04:01:03.415Z,8.29
2018-11-03T04:02:03.403Z,8.28
2018-11-03T04:03:03.395Z,8.36
2018-11-03T04:04:03.375Z,8.34
2018-11-03T04:05:03.366Z,8.20
2018-11-03T04:06:03.353Z,8.22
2018-11-03T04:07:03.336Z,8.18
2018-11-03T04:08:03.321Z,8.12
2018-11-03T04:09:03.306Z,8.04
2018-11-03T04:10:03.297Z,8.00
2018-11-03T04:11:03.279Z,7.97
2018-11-03T04:12:03.264Z,7.90
2018-11-03T04:13:03.249Z,7.95
2018-11-03T04:14:03.235Z,7.92
2018-11-03T04:15:03.221Z,7.97
2018-11-03T04:16:03.208Z,7.92
2018-11-03T04:17:03.195Z,7.98
2018-11-03T04:18:03.184Z,7.98
2018-11-03T04:19:03.168Z,8.02
2018-11-03T04:20:03.152Z,8.00
2018-11-03T04:21:03.138Z,8.04
2018-11-03T04:22:03.129Z,8.05
2018-11-03T04:23:03.113Z,8.01
2018-11-03T04:24:03.101Z,8.02
2018-11-03T04:25:03.088Z,8.02
2018-11-03T04:26:03.065Z,8.01
2018-11-03T04:27:03.054Z,8.02
2018-11-03T04:28:03.045Z,8.11
2018-11-03T04:29:03.021Z,8.05
2018-11-03T04:30:03.011Z,8.04
2018-11-03T04:31:02.991Z,8.02
2018-11-03T04:32:02.980Z,8.07
2018-11-03T04:33:02.967Z,8.07
2018-11-03T04:34:02.957Z,8.07
2018-11-03T04:35:02.944Z,8.00
2018-11-03T04:36:02.926Z,8.05
2018-11-03T04:37:02.910Z,7.98
2018-11-03T04:38:02.899Z,8.00
2018-11-03T04:39:02.881Z,7.97
2018-11-03T04:40:02.870Z,7.97
2018-11-03T04:41:02.856Z,7.93
2018-11-03T04:42:02.838Z,7.92
2018-11-03T04:43:02.826Z,7.95
2018-11-03T04:44:02.814Z,7.80
2018-11-03T04:45:02.801Z,7.87
2018-11-03T04:46:02.781Z,7.90
2018-11-03T04:47:02.766Z,7.86
2018-11-03T04:48:02.753Z,7.87
2018-11-03T04:49:02.742Z,7.82
2018-11-03T04:50:02.727Z,7.85
2018-11-03T04:51:02.712Z,7.79
2018-11-03T04:52:02.705Z,7.64
2018-11-03T04:53:02.704Z,7.72
2018-11-03T04:54:02.668Z,7.63
2018-11-03T04:55:02.716Z,7.55
2018-11-03T04:56:02.645Z,7.52
2018-11-03T04:57:02.631Z,7.53
2018-11-03T04:58:02.613Z,7.52
2018-11-03T04:59:02.596Z,7.50
2018-11-03T05:00:02.585Z,7.46
2018-11-03T05:01:02.571Z,7.55
2018-11-03T05:02:02.555Z,7.55
2018-11-03T05:03:02.540Z,7.48
2018-11-03T05:04:02.528Z,7.49
2018-11-03T05:05:02.511Z,7.48
2018-11-03T05:06:02.500Z,7.46
2018-11-03T05:07:02.485Z,7.46
2018-11-03T05:08:02.471Z,7.49
2018-11-03T05:09:02.462Z,7.39
2018-11-03T05:10:02.478Z,7.48
2018-11-03T05:11:02.428Z,7.49
2018-11-03T05:12:02.414Z,7.48
2018-11-03T05:13:02.391Z,7.40
2018-11-03T05:14:02.383Z,7.34
2018-11-03T05:15:02.372Z,7.37
2018-11-03T05:16:02.358Z,7.32
2018-11-03T05:17:02.343Z,7.39
2018-11-03T05:18:02.325Z,7.16
2018-11-03T05:19:02.313Z,7.20
2018-11-03T05:20:02.305Z,7.09
2018-11-03T05:21:02.320Z,7.09
2018-11-03T05:22:02.295Z,6.97
2018-11-03T05:23:02.260Z,7.06
2018-11-03T05:24:02.239Z,7.03
2018-11-03T05:25:02.241Z,7.09
2018-11-03T05:26:02.212Z,7.07
2018-11-03T05:27:02.198Z,7.12
2018-11-03T05:28:02.178Z,7.12
2018-11-03T05:29:02.170Z,7.09
2018-11-03T05:30:02.190Z,7.12
2018-11-03T05:31:02.201Z,7.03
2018-11-03T05:32:02.124Z,6.99
2018-11-03T05:33:02.106Z,7.10
2018-11-03T05:34:02.103Z,7.13
2018-11-03T05:35:02.086Z,7.12
2018-11-03T05:36:02.060Z,7.05
2018-11-03T05:37:02.054Z,6.98
2018-11-03T05:38:02.042Z,6.99
2018-11-03T05:39:02.121Z,6.98
2018-11-03T05:40:02.011Z,6.98
2018-11-03T05:41:01.991Z,6.92
2018-11-03T05:42:01.978Z,6.97
2018-11-03T05:43:01.960Z,6.94
2018-11-03T05:44:01.953Z,6.97
2018-11-03T05:45:01.937Z,6.97
2018-11-03T05:46:01.923Z,7.03
2018-11-03T05:47:01.903Z,6.97
2018-11-03T05:48:01.897Z,6.98
2018-11-03T05:49:01.883Z,6.98
2018-11-03T05:50:01.863Z,7.12
2018-11-03T05:51:01.847Z,7.10
2018-11-03T05:52:01.831Z,7.16
2018-11-03T05:53:01.818Z,7.10
2018-11-03T05:54:01.801Z,7.07
2018-11-03T05:55:01.797Z,7.07
2018-11-03T05:56:01.774Z,7.09
2018-11-03T05:57:01.765Z,7.13
2018-11-03T05:58:01.748Z,7.12
2018-11-03T05:59:01.859Z,7.12
2018-11-03T06:00:01.737Z,7.15
2018-11-03T06:01:01.703Z,7.15
2018-11-03T06:02:01.689Z,7.12
2018-11-03T06:03:01.671Z,7.23
2018-11-03T06:04:01.657Z,7.20
2018-11-03T06:05:01.643Z,7.21
2018-11-03T06:06:01.633Z,7.12
2018-11-03T06:07:01.615Z,7.16
2018-11-03T06:08:01.601Z,7.23
2018-11-03T06:09:01.628Z,7.17
2018-11-03T06:10:01.575Z,7.17
2018-11-03T06:11:01.571Z,7.17
2018-11-03T06:12:01.542Z,7.16
2018-11-03T06:13:01.524Z,7.16
2018-11-03T06:14:01.513Z,7.17
2018-11-03T06:15:01.500Z,7.17
2018-11-03T06:16:01.482Z,7.15
2018-11-03T06:17:01.470Z,7.09
2018-11-03T06:18:01.456Z,7.20
2018-11-03T06:19:01.443Z,7.09
2018-11-03T06:20:01.424Z,7.13
2018-11-03T06:21:01.418Z,7.20
2018-11-03T06:22:01.402Z,7.17
2018-11-03T06:23:01.474Z,7.20
2018-11-03T06:24:01.373Z,7.23
2018-11-03T06:25:01.373Z,7.12
2018-11-03T06:26:01.337Z,7.17
2018-11-03T06:27:01.332Z,7.10
2018-11-03T06:28:01.375Z,7.09
2018-11-03T06:29:01.297Z,7.10
2018-11-03T06:30:01.276Z,7.06
2018-11-03T06:31:01.268Z,7.12
2018-11-03T06:32:01.268Z,7.05
2018-11-03T06:33:01.232Z,6.97
2018-11-03T06:34:01.224Z,6.99
2018-11-03T06:35:01.260Z,6.94
2018-11-03T06:36:01.198Z,6.98
2018-11-03T06:37:01.178Z,6.98
2018-11-03T06:38:01.161Z,6.94
2018-11-03T06:39:01.244Z,6.97
2018-11-03T06:40:01.139Z,6.97
2018-11-03T06:41:01.125Z,6.98
2018-11-03T06:42:01.104Z,6.99
2018-11-03T06:43:01.088Z,6.99
2018-11-03T06:44:01.073Z,6.98
2018-11-03T06:45:01.066Z,6.98
2018-11-03T06:46:01.048Z,6.98
2018-11-03T06:47:01.030Z,6.98
2018-11-03T06:48:01.021Z,7.03
2018-11-03T06:49:01.003Z,6.94
2018-11-03T06:50:00.990Z,6.84
2018-11-03T06:51:00.971Z,6.81
2018-11-03T06:52:00.986Z,7.02
2018-11-03T06:53:00.944Z,6.99
2018-11-03T06:54:00.927Z,6.97
2018-11-03T06:55:00.916Z,6.99
2018-11-03T06:56:00.902Z,6.98
2018-11-03T06:57:00.888Z,6.92
2018-11-03T06:58:00.872Z,6.95
2018-11-03T06:59:00.857Z,6.89
2018-11-03T07:00:00.840Z,6.84
2018-11-03T07:01:00.822Z,6.88
2018-11-03T07:02:00.809Z,6.80
2018-11-03T07:03:00.807Z,6.80
2018-11-03T07:04:00.789Z,6.73
2018-11-03T07:05:00.812Z,6.81
2018-11-03T07:06:00.757Z,6.69
2018-11-03T07:07:00.738Z,6.70
2018-11-03T07:08:00.727Z,6.70
2018-11-03T07:09:00.714Z,6.71
2018-11-03T07:10:00.694Z,6.80
2018-11-03T07:11:00.676Z,6.80
2018-11-03T07:12:00.672Z,6.84
2018-11-03T07:13:00.702Z,6.85
2018-11-03T07:14:00.635Z,6.76
2018-11-03T07:15:00.620Z,6.84
2018-11-03T07:16:00.606Z,6.81
2018-11-03T07:17:00.596Z,6.87
2018-11-03T07:18:00.578Z,6.91
2018-11-03T07:19:00.560Z,6.94
2018-11-03T07:20:00.547Z,6.87
2018-11-03T07:21:00.544Z,7.02
2018-11-03T07:22:00.517Z,6.98
2018-11-03T07:23:00.507Z,6.99
2018-11-03T07:24:00.486Z,6.94
2018-11-03T07:25:00.473Z,7.10
2018-11-03T07:26:00.459Z,7.09
2018-11-03T07:27:00.443Z,7.20
2018-11-03T07:28:00.430Z,7.21
2018-11-03T07:29:00.416Z,7.24
2018-11-03T07:30:00.399Z,7.21
2018-11-03T07:31:00.387Z,7.31
2018-11-03T07:32:00.369Z,7.37
2018-11-03T07:33:00.355Z,7.43
2018-11-03T07:34:00.340Z,7.46
2018-11-03T07:35:00.326Z,7.58
2018-11-03T07:36:00.312Z,7.71
2018-11-03T07:37:00.300Z,7.82
2018-11-03T07:38:00.287Z,7.82
2018-11-03T07:39:00.284Z,8.01
2018-11-03T07:40:00.263Z,8.05
2018-11-03T07:41:00.332Z,8.16
2018-11-03T07:42:00.229Z,8.18
2018-11-03T07:43:00.213Z,8.36
2018-11-03T07:44:00.195Z,8.41
2018-11-03T07:45:00.183Z,8.47
2018-11-03T07:46:00.169Z,8.53
2018-11-03T07:47:00.155Z,8.65
2018-11-03T07:48:00.247Z,8.80
2018-11-03T07:49:00.204Z,8.86
2018-11-03T07:50:00.112Z,8.96
2018-11-03T07:51:00.111Z,9.10
2018-11-03T07:52:00.082Z,9.18
2018-11-03T07:53:00.068Z,9.40
2018-11-03T07:54:00.076Z,9.35
2018-11-03T07:55:00.039Z,9.53
2018-11-03T07:56:00.037Z,9.64
2018-11-03T07:57:00.013Z,9.74
2018-11-03T07:58:00.000Z,9.83
2018-11-03T07:58:59.984Z,9.89
2018-11-03T07:59:59.969Z,9.91
2018-11-03T08:00:59.957Z,10.11
2018-11-03T08:01:59.943Z,10.09
2018-11-03T08:02:59.931Z,10.17
2018-11-03T08:03:59.915Z,10.26
2018-11-03T08:04:59.897Z,10.18
2018-11-03T08:05:59.887Z,10.36
2018-11-03T08:06:59.890Z,10.47
2018-11-03T08:07:59.860Z,10.59
2018-11-03T08:08:59.900Z,10.61
2018-11-03T08:09:59.830Z,10.66
2018-11-03T08:10:59.817Z,10.66
2018-11-03T08:11:59.810Z,10.74
2018-11-03T08:12:59.806Z,10.73
2018-11-03T08:13:59.784Z,10.82
2018-11-03T08:14:59.763Z,10.86
2018-11-03T08:15:59.756Z,11.02
2018-11-03T08:16:59.767Z,10.84
2018-11-03T08:17:59.721Z,10.82
2018-11-03T08:18:59.709Z,10.82
2018-11-03T08:19:59.701Z,10.89
2018-11-03T08:20:59.697Z,10.84
2018-11-03T08:21:59.681Z,10.81
2018-11-03T08:22:59.663Z,10.74
2018-11-03T08:23:59.740Z,10.66
2018-11-03T08:24:59.633Z,10.68
2018-11-03T08:25:59.618Z,10.66
2018-11-03T08:26:59.646Z,10.60
2018-11-03T08:27:59.594Z,10.66
2018-11-03T08:28:59.581Z,10.70
2018-11-03T08:29:59.568Z,10.63
2018-11-03T08:30:59.546Z,10.56
2018-11-03T08:31:59.540Z,10.40
2018-11-03T08:32:59.526Z,10.36
2018-11-03T08:33:59.512Z,10.26
2018-11-03T08:34:59.507Z,10.15
2018-11-03T08:35:59.484Z,10.22
2018-11-03T08:36:59.479Z,10.17
2018-11-03T08:37:59.514Z,10.14
2018-11-03T08:38:59.446Z,10.17
2018-11-03T08:39:59.434Z,9.97
2018-11-03T08:40:59.433Z,9.94
2018-11-03T08:41:59.405Z,9.94
2018-11-03T08:42:59.392Z,9.91
2018-11-03T08:43:59.383Z,9.94
2018-11-03T08:44:59.367Z,9.89
2018-11-03T08:45:59.353Z,9.90
2018-11-03T08:46:59.344Z,9.91
2018-11-03T08:47:59.413Z,9.93
2018-11-03T08:48:59.330Z,9.93
2018-11-03T08:49:59.304Z,9.89
2018-11-03T08:50:59.289Z,9.81
2018-11-03T08:51:59.271Z,9.83
2018-11-03T08:52:59.271Z,9.83
2018-11-03T08:53:59.247Z,9.81
2018-11-03T08:54:59.230Z,9.84
2018-11-03T08:55:59.223Z,9.79
2018-11-03T08:56:59.210Z,9.81
2018-11-03T08:57:59.191Z,9.87
2018-11-03T08:58:59.180Z,9.87
2018-11-03T08:59:59.293Z,9.93
2018-11-03T09:00:59.158Z,9.87
2018-11-03T09:01:59.150Z,9.97
2018-11-03T09:02:59.127Z,9.97
2018-11-03T09:03:59.113Z,9.99
2018-11-03T09:04:59.099Z,10.02
2018-11-03T09:05:59.096Z,10.12
2018-11-03T09:06:59.167Z,10.12
2018-11-03T09:07:59.061Z,10.20
2018-11-03T09:08:59.111Z,10.12
2018-11-03T09:09:59.025Z,10.18
2018-11-03T09:10:59.022Z,10.11
2018-11-03T09:11:59.014Z,10.14
2018-11-03T09:12:58.999Z,10.18
2018-11-03T09:13:58.983Z,10.27
2018-11-03T09:14:58.971Z,10.30
2018-11-03T09:15:58.996Z,10.27
2018-11-03T09:16:58.941Z,10.36
2018-11-03T09:17:58.927Z,10.32
2018-11-03T09:18:58.913Z,10.53
2018-11-03T09:19:58.897Z,10.61
2018-11-03T09:20:58.885Z,10.67
2018-11-03T09:21:58.877Z,10.61
2018-11-03T09:22:58.866Z,10.76
2018-11-03T09:23:58.852Z,10.79
2018-11-03T09:24:58.834Z,10.88
2018-11-03T09:25:58.822Z,10.82
2018-11-03T09:26:58.840Z,10.84
2018-11-03T09:27:58.799Z,10.89
2018-11-03T09:28:58.797Z,10.97
2018-11-03T09:29:58.766Z,11.17
2018-11-03T09:30:58.763Z,11.35
2018-11-03T09:31:58.844Z,11.36
2018-11-03T09:32:58.727Z,11.42
2018-11-03T09:33:58.720Z,11.51
2018-11-03T09:34:58.704Z,11.65
2018-11-03T09:35:58.702Z,11.91
2018-11-03T09:36:58.682Z,12.05
2018-11-03T09:37:58.671Z,12.16
2018-11-03T09:38:58.740Z,12.29
2018-11-03T09:39:58.641Z,12.42
2018-11-03T09:40:58.631Z,12.56
2018-11-03T09:41:58.620Z,12.57
2018-11-03T09:42:58.634Z,12.75
2018-11-03T09:43:58.595Z,12.83
2018-11-03T09:44:58.654Z,12.85
2018-11-03T09:45:58.565Z,13.05
2018-11-03T09:46:58.553Z,13.07
2018-11-03T09:47:58.545Z,13.14
2018-11-03T09:48:58.529Z,13.30
2018-11-03T09:49:58.515Z,13.26
2018-11-03T09:50:58.521Z,13.33
2018-11-03T09:51:58.496Z,13.28
2018-11-03T09:52:58.480Z,13.25
2018-11-03T09:53:58.467Z,13.42
2018-11-03T09:54:58.454Z,13.54
2018-11-03T09:55:58.449Z,13.45
2018-11-03T09:56:58.434Z,13.33
2018-11-03T09:57:58.414Z,13.42
2018-11-03T09:58:58.405Z,13.25
2018-11-03T09:59:58.414Z,13.11
2018-11-03T10:00:58.390Z,13.11
2018-11-03T10:01:58.377Z,13.03
2018-11-03T10:02:58.366Z,12.97
2018-11-03T10:03:58.353Z,13.28
2018-11-03T10:04:58.338Z,13.28
2018-11-03T10:05:58.329Z,13.28
2018-11-03T10:06:58.320Z,13.20
2018-11-03T10:07:58.307Z,13.23
2018-11-03T10:08:58.299Z,13.22
2018-11-03T10:09:58.280Z,13.25
2018-11-03T10:10:58.275Z,13.32
2018-11-03T10:11:58.263Z,13.41
2018-11-03T10:12:58.260Z,13.55
2018-11-03T10:13:58.234Z,13.63
2018-11-03T10:14:58.218Z,13.95
2018-11-03T10:15:58.272Z,14.17
2018-11-03T10:16:58.199Z,14.29
2018-11-03T10:17:58.189Z,14.50
2018-11-03T10:18:58.174Z,14.46
2018-11-03T10:19:58.161Z,14.43
2018-11-03T10:20:58.157Z,14.35
2018-11-03T10:21:58.149Z,14.39
2018-11-03T10:22:58.199Z,14.24
2018-11-03T10:23:58.123Z,14.25
2018-11-03T10:24:58.112Z,14.35
2018-11-03T10:25:58.090Z,14.36
2018-11-03T10:26:58.083Z,14.35
2018-11-03T10:27:58.076Z,14.32
2018-11-03T10:28:58.063Z,14.28
2018-11-03T10:29:58.052Z,14.21
2018-11-03T10:30:58.075Z,14.20
2018-11-03T10:31:58.039Z,14.22
2018-11-03T10:32:58.024Z,14.24
2018-11-03T10:33:58.011Z,14.45
2018-11-03T10:34:57.994Z,14.51
2018-11-03T10:35:57.987Z,14.58
2018-11-03T10:36:57.973Z,14.68
2018-11-03T10:37:57.962Z,14.83
2018-11-03T10:38:57.951Z,15.01
2018-11-03T10:39:57.936Z,15.03
2018-11-03T10:40:57.928Z,15.23
2018-11-03T10:41:57.914Z,15.44
2018-11-03T10:42:57.908Z,15.43
2018-11-03T10:43:57.895Z,15.46
2018-11-03T10:44:57.889Z,15.53
2018-11-03T10:45:57.867Z,15.67
2018-11-03T10:46:57.861Z,15.74
2018-11-03T10:47:57.855Z,15.82
2018-11-03T10:48:57.849Z,15.97
2018-11-03T10:49:57.832Z,16.11
2018-11-03T10:50:57.822Z,16.30
2018-11-03T10:51:57.810Z,16.30
2018-11-03T10:52:57.800Z,16.42
2018-11-03T10:53:57.789Z,16.45
2018-11-03T10:54:57.772Z,16.57
2018-11-03T10:55:57.765Z,16.49
2018-11-03T10:56:57.759Z,16.43
2018-11-03T10:57:57.742Z,16.50
2018-11-03T10:58:57.741Z,16.25
2018-11-03T10:59:57.720Z,16.30
2018-11-03T11:00:57.718Z,16.05
2018-11-03T11:01:57.705Z,15.90
2018-11-03T11:02:57.699Z,15.75
2018-11-03T11:03:57.686Z,15.84
2018-11-03T11:04:57.686Z,15.74
2018-11-03T11:05:57.667Z,15.71
2018-11-03T11:06:57.655Z,15.80
2018-11-03T11:07:57.643Z,15.92
2018-11-03T11:08:57.636Z,16.15
2018-11-03T11:09:57.621Z,16.11
2018-11-03T11:10:57.614Z,16.07
2018-11-03T11:11:57.601Z,16.28
2018-11-03T11:12:57.596Z,16.31
2018-11-03T11:13:57.626Z,16.38
2018-11-03T11:14:57.576Z,16.48
2018-11-03T11:15:57.690Z,16.67
2018-11-03T11:16:57.696Z,16.85
2018-11-03T11:17:57.542Z,16.98
2018-11-03T11:18:57.531Z,17.31
2018-11-03T11:19:57.521Z,17.37
2018-11-03T11:20:57.509Z,17.58
2018-11-03T11:21:57.505Z,17.71
2018-11-03T11:22:57.514Z,17.75
2018-11-03T11:23:57.540Z,17.71
2018-11-03T11:24:57.716Z,17.44
2018-11-03T11:25:57.463Z,17.16
2018-11-03T11:26:57.456Z,16.93
2018-11-03T11:27:57.446Z,16.71
2018-11-03T11:28:57.435Z,16.73
2018-11-03T11:29:57.422Z,16.58
2018-11-03T11:30:57.413Z,16.67
2018-11-03T11:31:57.405Z,16.68
2018-11-03T11:32:57.411Z,16.76
2018-11-03T11:33:57.387Z,16.78
2018-11-03T11:34:57.379Z,16.98
2018-11-03T11:35:57.368Z,17.03
2018-11-03T11:36:57.354Z,17.34
2018-11-03T11:37:57.350Z,17.41
2018-11-03T11:38:57.337Z,17.59
2018-11-03T11:39:57.332Z,17.75
2018-11-03T11:40:57.322Z,17.86
2018-11-03T11:41:57.307Z,17.78
2018-11-03T11:42:57.310Z,17.81
2018-11-03T11:43:57.290Z,17.89
2018-11-03T11:44:57.279Z,18.02
2018-11-03T11:45:57.281Z,18.05
2018-11-03T11:46:57.261Z,18.07
2018-11-03T11:47:57.246Z,18.03
2018-11-03T11:48:57.242Z,18.17
2018-11-03T11:49:57.269Z,18.29
2018-11-03T11:50:57.227Z,18.48
2018-11-03T11:51:57.218Z,18.63
2018-11-03T11:52:57.212Z,18.73
2018-11-03T11:53:57.195Z,18.60
2018-11-03T11:54:57.271Z,18.57
2018-11-03T11:55:57.179Z,18.72
2018-11-03T11:56:57.171Z,18.88
2018-11-03T11:57:57.159Z,19.13
2018-11-03T11:58:57.151Z,19.31
2018-11-03T11:59:57.145Z,19.40
2018-11-03T12:00:57.133Z,19.33
2018-11-03T12:01:57.126Z,19.39
2018-11-03T12:02:57.115Z,19.19
2018-11-03T12:03:57.107Z,19.31
2018-11-03T12:04:57.094Z,19.23
2018-11-03T12:05:57.089Z,19.32
2018-11-03T12:06:57.082Z,19.25
2018-11-03T12:07:57.068Z,19.18
2018-11-03T12:08:57.065Z,19.31
2018-11-03T12:09:57.112Z,19.36
2018-11-03T12:10:57.050Z,19.54
2018-11-03T12:11:57.038Z,19.65
2018-11-03T12:12:57.030Z,19.68
2018-11-03T12:13:57.021Z,19.83
2018-11-03T12:14:57.012Z,19.91
2018-11-03T12:15:57.004Z,20.03
2018-11-03T12:16:56.999Z,20.24
2018-11-03T12:17:56.988Z,20.38
2018-11-03T12:18:56.992Z,20.31
2018-11-03T12:19:56.963Z,20.31
2018-11-03T12:20:56.962Z,20.21
2018-11-03T12:21:56.956Z,20.16
2018-11-03T12:22:56.960Z,20.18
2018-11-03T12:23:56.932Z,20.13
2018-11-03T12:24:56.968Z,20.13
2018-11-03T12:25:56.923Z,20.14
2018-11-03T12:26:56.912Z,20.36
2018-11-03T12:27:56.903Z,20.31
2018-11-03T12:28:56.971Z,20.24
2018-11-03T12:29:56.914Z,20.20
2018-11-03T12:30:56.880Z,20.17
2018-11-03T12:31:56.870Z,20.08
2018-11-03T12:32:56.860Z,19.98
2018-11-03T12:33:56.852Z,19.99
2018-11-03T12:34:56.846Z,20.02
2018-11-03T12:35:56.838Z,20.01
2018-11-03T12:36:56.832Z,19.80
2018-11-03T12:37:56.824Z,19.44
2018-11-03T12:38:56.810Z,19.43
2018-11-03T12:39:56.825Z,19.28
2018-11-03T12:40:56.955Z,19.13
2018-11-03T12:41:56.823Z,19.19
2018-11-03T12:42:56.781Z,19.32
2018-11-03T12:43:56.775Z,19.29
2018-11-03T12:44:56.771Z,19.40
2018-11-03T12:45:56.761Z,19.55
2018-11-03T12:46:56.744Z,19.41
2018-11-03T12:47:56.793Z,19.50
2018-11-03T12:48:56.733Z,19.73
2018-11-03T12:49:56.729Z,19.80
2018-11-03T12:50:56.715Z,19.98
2018-11-03T12:51:56.707Z,20.11
2018-11-03T12:52:56.700Z,20.23
2018-11-03T12:53:56.752Z,20.29
2018-11-03T12:54:56.682Z,20.38
2018-11-03T12:55:56.678Z,20.50
2018-11-03T12:56:56.671Z,20.61
2018-11-03T12:57:56.664Z,20.76
2018-11-03T12:58:56.681Z,20.72
2018-11-03T12:59:56.649Z,20.89
2018-11-03T13:00:56.635Z,20.92
2018-11-03T13:01:56.630Z,20.85
2018-11-03T13:02:56.622Z,20.95
2018-11-03T13:03:56.611Z,20.94
2018-11-03T13:04:56.664Z,20.87
2018-11-03T13:05:56.597Z,20.97
2018-11-03T13:06:56.734Z,20.98
2018-11-03T13:07:56.615Z,21.03
2018-11-03T13:08:56.574Z,21.01